Time;durP1;ratioP1;P1;durP2;ratioP2;P2;SDS_P1;SDS_P2;PMS_P1;PMS_P2;Temp;Humidity;BMP_temperature;BMP_pressure;BME280_temperature;BME280_humidity;BME280_pressure;Samples;Min_cycle;Max_cycle;Signal;HPM_P1;HPM_P2
2021/07/06 00:02:24;;;;;;;6.50;4.15;;;;;;;22.21;70.43;99406.80;1732877;82;20925;-78
2021/07/06 00:04:55;;;;;;;7.00;4.12;;;;;;;22.18;70.63;99411.25;1738701;82;22189;-77
2021/07/06 00:07:19;;;;;;;4.75;4.28;;;;;;;22.13;70.76;99405.73;1733774;82;21084;-80
2021/07/06 00:09:47;;;;;;;7.03;4.47;;;;;;;22.04;70.88;99410.23;1720368;82;21022;-79
2021/07/06 00:12:14;;;;;;;5.87;4.60;;;;;;;21.97;71.06;99416.99;1720419;82;21355;-79
2021/07/06 00:14:41;;;;;;;6.40;5.00;;;;;;;21.96;71.25;99423.41;1720751;83;21013;-78
2021/07/06 00:17:07;;;;;;;6.80;4.83;;;;;;;21.93;71.38;99420.66;1720878;83;22210;-80
2021/07/06 00:19:36;;;;;;;7.50;4.87;;;;;;;21.93;71.52;99424.69;1724193;80;20996;-79
2021/07/06 00:22:03;;;;;;;5.05;4.53;;;;;;;21.95;71.64;99427.15;1721042;82;21075;-79
2021/07/06 00:24:30;;;;;;;6.45;4.65;;;;;;;21.95;71.74;99427.15;1721372;82;20996;-79
2021/07/06 00:26:57;;;;;;;7.78;4.40;;;;;;;21.96;71.81;99422.07;1720951;82;21024;-79
2021/07/06 00:29:24;;;;;;;7.12;4.72;;;;;;;21.95;71.74;99420.42;1720312;83;22649;-79
2021/07/06 00:31:50;;;;;;;8.00;4.58;;;;;;;21.93;71.85;99418.48;1720323;83;21028;-77
2021/07/06 00:34:17;;;;;;;6.60;4.72;;;;;;;21.95;71.96;99419.08;1741982;82;21095;-77
2021/07/06 00:36:45;;;;;;;5.83;5.03;;;;;;;21.94;71.98;99417.44;1737965;82;20969;-77
2021/07/06 00:39:12;;;;;;;6.65;4.95;;;;;;;21.92;72.12;99424.91;1721613;82;21054;-77
2021/07/06 00:41:40;;;;;;;5.80;4.92;;;;;;;21.90;72.19;99423.75;1747983;82;21025;-77
2021/07/06 00:44:16;;;;;;;5.70;4.90;;;;;;;21.92;72.21;99431.63;1747989;82;20934;-76
2021/07/06 00:46:43;;;;;;;9.33;5.20;;;;;;;21.93;72.24;99433.27;1745216;82;21012;-76
2021/07/06 00:49:10;;;;;;;9.25;6.05;;;;;;;21.90;72.15;99433.16;1720617;83;21051;-76
2021/07/06 00:51:36;;;;;;;5.80;5.20;;;;;;;21.90;72.20;99438.54;1721240;82;20945;-78
2021/07/06 00:54:03;;;;;;;7.87;5.28;;;;;;;21.93;72.17;99440.00;1745906;82;22224;-76
2021/07/06 00:56:31;;;;;;;10.72;5.92;;;;;;;21.94;72.18;99436.27;1749925;82;21009;-76
2021/07/06 00:58:57;;;;;;;9.00;5.67;;;;;;;21.95;72.12;99440.59;1750104;82;20980;-76
2021/07/06 01:01:24;;;;;;;8.28;5.60;;;;;;;21.94;72.19;99440.30;1750178;80;20993;-76
2021/07/06 01:03:50;;;;;;;8.13;5.50;;;;;;;21.92;72.19;99443.73;1719545;82;21008;-76
2021/07/06 01:06:17;;;;;;;10.30;5.97;;;;;;;21.91;72.30;99442.08;1750128;82;22194;-77
2021/07/06 01:08:45;;;;;;;5.85;5.22;;;;;;;21.87;72.30;99444.36;1750104;82;20984;-77
2021/07/06 01:11:13;;;;;;;8.10;5.58;;;;;;;21.86;72.32;99443.24;1727507;82;20984;-77
2021/07/06 01:13:40;;;;;;;8.23;5.80;;;;;;;21.86;72.29;99444.59;1729528;82;21032;-77
2021/07/06 01:16:07;;;;;;;8.35;5.53;;;;;;;21.88;72.29;99446.53;1750361;82;20981;-77
2021/07/06 01:18:34;;;;;;;7.55;5.58;;;;;;;21.86;72.14;99449.44;1723400;82;22650;-78
2021/07/06 01:21:00;;;;;;;7.90;5.50;;;;;;;21.84;72.11;99456.91;1735110;82;21492;-78
2021/07/06 01:23:29;;;;;;;7.25;5.70;;;;;;;21.84;72.21;99457.42;1748098;82;21289;-77
2021/07/06 01:25:59;;;;;;;6.00;5.33;;;;;;;21.81;72.25;99451.97;1750195;82;21420;-77
2021/07/06 01:28:25;;;;;;;8.98;5.70;;;;;;;21.78;72.34;99455.08;1724203;82;21432;-77
2021/07/06 01:30:52;;;;;;;7.47;5.50;;;;;;;21.77;72.47;99461.49;1729029;82;22762;-77
2021/07/06 01:33:25;;;;;;;7.37;5.28;;;;;;;21.78;72.60;99461.80;1698110;82;20955;-78
2021/07/06 01:35:53;;;;;;;9.53;6.00;;;;;;;21.78;72.63;99460.45;1749214;82;21048;-77
2021/07/06 01:38:20;;;;;;;7.53;5.28;;;;;;;21.78;72.70;99467.69;1749939;82;21064;-77
2021/07/06 01:40:46;;;;;;;6.87;5.30;;;;;;;21.74;72.78;99467.31;1742343;82;20941;-78
2021/07/06 01:43:13;;;;;;;6.35;5.40;;;;;;;21.70;72.81;99465.55;1720371;83;21810;-78
2021/07/06 01:45:41;;;;;;;9.80;6.00;;;;;;;21.70;72.82;99466.90;1722908;82;20998;-77
2021/07/06 01:48:08;;;;;;;6.85;5.65;;;;;;;21.71;72.96;99471.27;1722129;82;21138;-78
2021/07/06 01:50:40;;;;;;;9.65;5.97;;;;;;;21.70;73.04;99469.59;1720864;82;21047;-77
2021/07/06 01:53:10;;;;;;;7.05;5.62;;;;;;;21.68;73.12;99474.36;1720320;82;20965;-77
2021/07/06 01:55:40;;;;;;;9.95;5.72;;;;;;;21.67;73.19;99475.41;1722196;82;21813;-78
2021/07/06 01:58:09;;;;;;;7.78;5.62;;;;;;;21.68;73.19;99474.36;1710285;83;20965;-77
2021/07/06 02:00:43;;;;;;;7.05;5.72;;;;;;;21.67;73.25;99478.61;1726497;82;20941;-76
2021/07/06 02:03:10;;;;;;;6.15;5.22;;;;;;;21.65;73.33;99482.04;1718824;81;21094;-76
2021/07/06 02:05:43;;;;;;;7.40;5.45;;;;;;;21.63;73.31;99481.44;1733948;82;20993;-77
2021/07/06 02:08:18;;;;;;;6.97;5.25;;;;;;;21.60;73.37;99485.36;1736195;81;21820;-76
2021/07/06 02:10:46;;;;;;;5.85;5.25;;;;;;;21.59;73.46;99483.72;1732790;82;20946;-76
2021/07/06 02:13:19;;;;;;;8.63;5.55;;;;;;;21.59;73.55;99486.40;1735997;82;21025;-77
2021/07/06 02:15:46;;;;;;;6.87;5.33;;;;;;;21.60;73.63;99493.42;1736133;82;20992;-76
2021/07/06 02:18:22;;;;;;;9.88;5.85;;;;;;;21.59;73.58;99488.27;1720763;82;20985;-76
2021/07/06 02:20:54;;;;;;;7.30;5.15;;;;;;;21.59;73.53;99493.12;1719642;82;21527;-76
2021/07/06 02:23:24;;;;;;;7.25;5.25;;;;;;;21.60;73.49;99500.66;1706558;84;21002;-77
2021/07/06 02:25:53;;;;;;;6.92;5.58;;;;;;;21.55;73.51;99499.97;1706597;84;21445;-79
2021/07/06 02:28:19;;;;;;;8.15;5.40;;;;;;;21.51;73.59;99500.08;1729196;82;21021;-79
2021/07/06 02:30:46;;;;;;;6.20;5.40;;;;;;;21.50;73.70;99504.33;1703314;82;20949;-76
2021/07/06 02:33:12;;;;;;;7.47;5.37;;;;;;;21.48;73.89;99505.06;1708737;82;22164;-77
2021/07/06 02:35:38;;;;;;;8.08;5.17;;;;;;;21.49;73.95;99506.71;1709403;82;20952;-78
2021/07/06 02:38:05;;;;;;;8.10;5.95;;;;;;;21.50;73.95;99514.55;1715162;82;20949;-78
2021/07/06 02:40:31;;;;;;;8.30;5.65;;;;;;;21.51;73.99;99514.85;1713942;82;21421;-78
2021/07/06 02:42:58;;;;;;;8.60;5.70;;;;;;;21.50;73.98;99510.52;1715891;82;20978;-77
2021/07/06 02:45:26;;;;;;;7.25;5.80;;;;;;;21.48;74.00;99515.30;1735330;81;22637;-79
2021/07/06 02:47:54;;;;;;;7.30;5.50;;;;;;;21.48;74.11;99520.66;1736046;82;20918;-78
2021/07/06 02:50:22;;;;;;;6.08;5.45;;;;;;;21.49;74.13;99518.80;1717523;81;20993;-79
2021/07/06 02:52:51;;;;;;;8.30;5.80;;;;;;;21.49;74.22;99520.97;1712406;82;21110;-77
2021/07/06 02:55:18;;;;;;;7.37;5.62;;;;;;;21.49;74.24;99525.52;1711040;82;20981;-78
2021/07/06 02:57:45;;;;;;;11.30;6.10;;;;;;;21.47;74.26;99520.36;1706796;82;21834;-79
2021/07/06 03:00:21;;;;;;;8.28;6.17;;;;;;;21.44;74.20;99524.83;1707361;82;21453;-79
2021/07/06 03:02:51;;;;;;;7.65;5.97;;;;;;;21.43;74.29;99526.69;1706669;83;20961;-79
2021/07/06 03:05:19;;;;;;;8.15;6.10;;;;;;;21.40;74.33;99527.62;1733505;82;21029;-79
2021/07/06 03:07:45;;;;;;;6.95;5.90;;;;;;;21.39;74.50;99524.62;1736024;82;21002;-78
2021/07/06 03:10:14;;;;;;;7.58;5.70;;;;;;;21.38;74.51;99529.70;1711319;82;22175;-78
2021/07/06 03:12:41;;;;;;;7.72;5.87;;;;;;;21.39;74.52;99532.16;1686581;84;20920;-80
2021/07/06 03:15:13;;;;;;;7.95;6.05;;;;;;;21.41;74.58;99529.27;1728708;81;21424;-80
2021/07/06 03:17:40;;;;;;;7.35;5.97;;;;;;;21.43;74.62;99537.95;1735559;82;21008;-80
2021/07/06 03:20:08;;;;;;;6.80;5.75;;;;;;;21.43;74.67;99537.44;1726033;82;21393;-81
2021/07/06 03:22:35;;;;;;;9.05;6.33;;;;;;;21.42;74.64;99536.28;1715121;82;21819;-82
2021/07/06 03:25:03;;;;;;;8.93;6.53;;;;;;;21.45;74.61;99533.19;1713847;82;21412;-79
2021/07/06 03:27:29;;;;;;;8.50;6.20;;;;;;;21.42;74.49;99534.94;1734900;81;21009;-81
2021/07/06 03:29:55;;;;;;;7.92;6.40;;;;;;;21.41;74.54;99534.64;1716791;82;20993;-79
2021/07/06 03:32:22;;;;;;;6.70;6.08;;;;;;;21.41;74.69;99542.17;1734464;81;21029;-81
2021/07/06 03:34:48;;;;;;;8.90;6.08;;;;;;;21.42;74.66;99538.97;1729853;82;21791;-78
2021/07/06 03:37:14;;;;;;;10.48;7.00;;;;;;;21.40;74.60;99545.08;1728296;82;21082;-79
2021/07/06 03:39:42;;;;;;;10.98;7.08;;;;;;;21.39;74.62;99549.63;1709139;82;21415;-78
2021/07/06 03:42:09;;;;;;;8.53;7.58;;;;;;;21.40;74.68;99546.42;1713036;82;20949;-78
2021/07/06 03:44:36;;;;;;;7.60;6.83;;;;;;;21.40;74.77;99547.24;1716318;82;20998;-81
2021/07/06 03:47:03;;;;;;;9.18;7.03;;;;;;;21.36;74.89;99542.00;1706178;82;22197;-81
2021/07/06 03:49:31;;;;;;;8.28;7.22;;;;;;;21.35;74.93;99548.94;1710506;82;21033;-80
2021/07/06 03:51:59;;;;;;;7.80;6.50;;;;;;;21.37;75.00;99541.48;1721736;82;21421;-80
2021/07/06 03:54:25;;;;;;;8.50;6.37;;;;;;;21.38;75.04;99543.13;1727623;82;21017;-80
2021/07/06 03:56:51;;;;;;;9.93;6.87;;;;;;;21.41;75.01;99546.20;1717077;82;21484;-82
2021/07/06 03:59:18;;;;;;;10.13;7.00;;;;;;;21.45;74.97;99541.25;1734880;81;22711;-83
2021/07/06 04:01:46;;;;;;;8.83;6.70;;;;;;;21.46;74.96;99540.73;1738374;82;20930;-80
2021/07/06 04:04:13;;;;;;;8.40;6.92;;;;;;;21.45;74.95;99541.25;1744692;82;20993;-81
2021/07/06 04:06:39;;;;;;;11.10;6.37;;;;;;;21.45;74.98;99545.28;1749917;81;21071;-80
2021/07/06 04:09:06;;;;;;;9.25;6.87;;;;;;;21.46;74.99;99550.95;1749986;82;20929;-80
2021/07/06 04:11:32;;;;;;;7.67;6.87;;;;;;;21.51;75.03;99539.03;1749970;82;22248;-81
2021/07/06 04:13:59;;;;;;;9.70;6.60;;;;;;;21.55;75.01;99541.63;1739434;82;21047;-80
2021/07/06 04:16:26;;;;;;;8.78;6.55;;;;;;;21.58;74.93;99547.91;1727912;82;21436;-85
2021/07/06 04:18:52;;;;;;;10.15;6.60;;;;;;;21.59;74.89;99547.38;1722564;82;21000;-86
2021/07/06 04:21:19;;;;;;;6.90;6.15;;;;;;;21.62;74.94;99550.48;1750005;80;21076;-87
2021/07/06 04:23:47;;;;;;;9.45;6.42;;;;;;;21.70;74.99;99551.56;1749973;80;22626;-82
2021/07/06 04:26:13;;;;;;;9.65;6.67;;;;;;;21.71;74.82;99553.23;1748927;82;21152;-86
2021/07/06 04:28:40;;;;;;;10.05;7.05;;;;;;;21.74;74.83;99551.98;1741413;82;21126;-78
2021/07/06 04:31:06;;;;;;;8.30;6.40;;;;;;;21.80;74.80;99551.63;1731325;82;20972;-78
2021/07/06 04:33:32;;;;;;;8.80;6.75;;;;;;;21.85;74.78;99558.54;1733838;82;20992;-81
2021/07/06 04:35:59;;;;;;;10.03;6.70;;;;;;;21.85;74.65;99559.36;1736270;82;22207;-82
2021/07/06 04:38:25;;;;;;;6.90;6.17;;;;;;;21.88;74.62;99560.27;1722553;82;20957;-79
2021/07/06 04:40:52;;;;;;;9.43;6.65;;;;;;;21.90;74.63;99554.15;1730675;82;21495;-80
2021/07/06 04:43:18;;;;;;;9.05;6.80;;;;;;;21.93;74.65;99560.98;1740020;82;21542;-78
2021/07/06 04:45:44;;;;;;;9.45;7.00;;;;;;;21.96;74.56;99561.89;1725956;82;20945;-81
2021/07/06 04:48:11;;;;;;;8.33;6.85;;;;;;;22.00;74.53;99558.56;1740444;82;21758;-82
2021/07/06 04:50:39;;;;;;;8.00;6.80;;;;;;;21.99;74.29;99562.79;1739361;82;21466;-80
2021/07/06 04:53:07;;;;;;;8.73;6.65;;;;;;;22.05;74.33;99565.16;1720172;82;21004;-76
2021/07/06 04:55:35;;;;;;;9.48;6.85;;;;;;;22.13;74.31;99568.45;1730436;82;21000;-77
2021/07/06 04:58:03;;;;;;;10.65;7.50;;;;;;;22.20;74.30;99567.06;1716600;82;20949;-77
2021/07/06 05:00:30;;;;;;;9.55;7.05;;;;;;;22.28;74.16;99570.30;1706478;84;21837;-77
2021/07/06 05:02:57;;;;;;;7.45;6.72;;;;;;;22.36;73.93;99569.73;1717504;82;20946;-76
2021/07/06 05:05:26;;;;;;;12.40;6.55;;;;;;;22.40;73.29;99560.20;1706654;82;21006;-77
2021/07/06 05:07:55;;;;;;;9.58;7.20;;;;;;;22.42;73.21;99566.19;1712720;82;21041;-78
2021/07/06 05:10:22;;;;;;;7.53;6.70;;;;;;;22.46;73.01;99571.42;1736032;82;21080;-76
2021/07/06 05:12:48;;;;;;;11.05;7.17;;;;;;;22.48;72.90;99564.77;1736091;82;21839;-74
2021/07/06 05:15:15;;;;;;;8.58;7.37;;;;;;;22.52;72.76;99563.83;1712475;82;21386;-77
2021/07/06 05:17:41;;;;;;;7.72;6.95;;;;;;;22.59;72.76;99572.69;1706819;82;20988;-78
2021/07/06 05:20:10;;;;;;;8.03;6.90;;;;;;;22.63;72.48;99566.33;1706620;82;20981;-77
2021/07/06 05:22:38;;;;;;;12.15;7.12;;;;;;;22.65;72.25;99565.58;1706641;82;20953;-76
2021/07/06 05:25:06;;;;;;;12.03;7.10;;;;;;;22.67;72.11;99557.58;1714960;82;21739;-77
2021/07/06 05:27:33;;;;;;;9.38;7.40;;;;;;;22.71;72.08;99557.45;1719686;82;21461;-76
2021/07/06 05:30:00;;;;;;;11.08;7.78;;;;;;;22.77;72.06;99557.90;1724138;82;21025;-78
2021/07/06 05:32:26;;;;;;;8.55;7.28;;;;;;;22.85;71.93;99568.95;1707337;82;21002;-77
2021/07/06 05:34:53;;;;;;;11.63;7.55;;;;;;;22.91;71.72;99579.38;1711815;82;20997;-76
2021/07/06 05:37:19;;;;;;;11.90;7.75;;;;;;;22.95;71.25;99576.52;1727388;81;21799;-78
2021/07/06 05:39:45;;;;;;;8.95;7.45;;;;;;;22.97;71.14;99576.63;1712534;82;20953;-81
2021/07/06 05:42:12;;;;;;;9.40;8.10;;;;;;;22.97;70.85;99572.59;1720022;82;21480;-78
2021/07/06 05:44:39;;;;;;;9.00;8.10;;;;;;;22.97;70.71;99573.94;1720480;82;21066;-78
2021/07/06 05:47:07;;;;;;;9.43;8.15;;;;;;;22.98;70.64;99584.18;1712890;82;20957;-77
2021/07/06 05:49:33;;;;;;;9.23;8.20;;;;;;;22.98;70.75;99584.18;1712627;82;22261;-77
2021/07/06 05:52:00;;;;;;;10.20;7.90;;;;;;;23.00;70.47;99584.78;1707331;82;21151;-78
2021/07/06 05:54:26;;;;;;;11.08;8.70;;;;;;;22.98;70.65;99586.34;1687164;83;21464;-79
2021/07/06 05:56:53;;;;;;;11.03;8.40;;;;;;;22.98;70.94;99585.53;1708448;82;21500;-80
2021/07/06 05:59:20;;;;;;;14.83;8.90;;;;;;;23.06;70.74;99586.04;1716546;82;21032;-79
2021/07/06 06:01:46;;;;;;;12.47;8.78;;;;;;;23.10;70.76;99583.75;1750017;82;22436;-78
2021/07/06 06:04:13;;;;;;;12.30;8.35;;;;;;;23.16;70.81;99585.53;1743601;82;21500;-82
2021/07/06 06:06:39;;;;;;;12.28;9.58;;;;;;;23.31;70.91;99587.35;1729283;82;20965;-79
2021/07/06 06:09:06;;;;;;;10.70;9.15;;;;;;;23.42;70.25;99586.60;1720429;82;21405;-76
2021/07/06 06:11:33;;;;;;;11.80;9.55;;;;;;;23.42;70.12;99587.95;1742682;82;21000;-80
2021/07/06 06:14:00;;;;;;;10.90;9.80;;;;;;;23.49;69.98;99591.11;1726160;82;22242;-82
2021/07/06 06:16:27;;;;;;;11.10;9.35;;;;;;;23.57;69.60;99593.50;1720956;82;20942;-80
2021/07/06 06:18:55;;;;;;;11.08;9.05;;;;;;;23.62;69.48;99602.58;1738737;82;21048;-77
2021/07/06 06:21:24;;;;;;;12.37;9.08;;;;;;;23.74;69.50;99600.47;1732033;82;21000;-78
2021/07/06 06:23:50;;;;;;;11.93;9.03;;;;;;;23.86;69.47;99608.12;1722424;82;21094;-81
2021/07/06 06:26:18;;;;;;;12.75;9.05;;;;;;;23.89;69.14;99604.43;1735678;82;22578;-78
2021/07/06 06:28:45;;;;;;;10.90;9.48;;;;;;;23.92;69.10;99617.98;1723167;82;20961;-81
2021/07/06 06:31:11;;;;;;;11.70;9.78;;;;;;;23.97;69.08;99614.91;1720223;82;21009;-79
2021/07/06 06:33:38;;;;;;;13.08;9.63;;;;;;;23.99;68.78;99620.89;1721047;82;21004;-80
2021/07/06 06:36:04;;;;;;;11.70;10.00;;;;;;;24.02;68.84;99618.78;1732332;82;21046;-83
2021/07/06 06:38:31;;;;;;;14.70;10.00;;;;;;;24.07;68.77;99624.34;1738889;82;22611;-77
2021/07/06 06:40:57;;;;;;;12.40;9.45;;;;;;;24.09;68.54;99618.19;1749998;82;20937;-76
2021/07/06 06:43:24;;;;;;;15.48;10.30;;;;;;;24.11;68.51;99624.16;1727630;82;20997;-81
2021/07/06 06:45:51;;;;;;;13.35;9.60;;;;;;;24.15;68.14;99625.38;1720051;82;21044;-78
2021/07/06 06:48:17;;;;;;;13.03;9.55;;;;;;;24.17;67.98;99622.73;1722238;82;21531;-80
2021/07/06 06:50:45;;;;;;;11.85;9.50;;;;;;;24.17;67.95;99625.97;1700867;83;22216;-80
2021/07/06 06:53:12;;;;;;;10.50;8.85;;;;;;;24.21;67.88;99629.31;1721862;82;21000;-80
2021/07/06 06:55:38;;;;;;;12.15;9.83;;;;;;;24.28;67.88;99622.48;1731540;82;20993;-79
2021/07/06 06:58:04;;;;;;;14.47;10.35;;;;;;;24.37;67.90;99624.36;1725348;82;21008;-78
2021/07/06 07:00:32;;;;;;;13.20;9.93;;;;;;;24.41;67.76;99627.70;1739984;82;21032;-78
2021/07/06 07:02:59;;;;;;;12.68;9.35;;;;;;;24.52;67.93;99636.40;1727787;80;21762;-78
2021/07/06 07:05:26;;;;;;;12.63;8.90;;;;;;;24.59;66.82;99632.22;1733888;82;20941;-78
2021/07/06 07:08:00;;;;;;;9.98;8.33;;;;;;;24.56;66.60;99635.40;1746746;82;21012;-78
2021/07/06 07:10:26;;;;;;;12.47;8.78;;;;;;;24.57;66.64;99638.92;1735995;82;21428;-79
2021/07/06 07:12:54;;;;;;;10.05;8.40;;;;;;;24.59;66.64;99636.27;1746758;82;21005;-77
2021/07/06 07:15:20;;;;;;;9.45;8.35;;;;;;;24.57;66.43;99642.97;1728942;82;22210;-78
2021/07/06 07:17:48;;;;;;;11.97;8.70;;;;;;;24.60;66.77;99636.56;1736057;82;20941;-77
2021/07/06 07:20:15;;;;;;;12.20;8.80;;;;;;;24.68;66.67;99633.54;1719958;82;21012;-76
2021/07/06 07:22:42;;;;;;;9.88;8.88;;;;;;;24.80;66.90;99624.10;1725618;82;21020;-78
2021/07/06 07:25:10;;;;;;;10.63;8.45;;;;;;;24.98;66.23;99627.23;1731206;82;21379;-77
2021/07/06 07:27:37;;;;;;;9.60;8.00;;;;;;;25.07;65.23;99628.04;1720416;82;22220;-77
2021/07/06 07:30:06;;;;;;;9.30;7.92;;;;;;;25.19;65.70;99628.06;1727438;82;20954;-76
2021/07/06 07:32:33;;;;;;;11.55;8.63;;;;;;;25.39;65.55;99627.70;1732621;82;21016;-76
2021/07/06 07:34:59;;;;;;;9.90;7.90;;;;;;;25.55;64.35;99628.84;1732189;82;21071;-76
2021/07/06 07:37:26;;;;;;;11.70;7.70;;;;;;;25.68;64.52;99620.48;1732530;82;21415;-77
2021/07/06 07:39:52;;;;;;;8.90;8.00;;;;;;;25.85;64.33;99622.73;1720501;82;22436;-77
2021/07/06 07:42:20;;;;;;;11.95;7.60;;;;;;;26.07;64.05;99631.05;1727412;82;20951;-77
2021/07/06 07:44:51;;;;;;;8.90;7.67;;;;;;;26.15;62.43;99629.31;1738060;82;21026;-75
2021/07/06 07:47:24;;;;;;;8.70;7.78;;;;;;;26.19;62.85;99631.81;1724737;82;21479;-76
2021/07/06 07:49:51;;;;;;;9.78;8.05;;;;;;;26.24;62.60;99633.24;1739045;82;21067;-75
2021/07/06 07:52:17;;;;;;;8.90;7.80;;;;;;;26.24;61.49;99627.83;1728850;82;22222;-77
2021/07/06 07:54:44;;;;;;;11.00;8.00;;;;;;;26.19;62.14;99634.52;1743301;80;20993;-77
2021/07/06 07:57:10;;;;;;;13.18;7.67;;;;;;;26.06;61.63;99634.81;1710472;82;21474;-75
2021/07/06 07:59:38;;;;;;;10.55;7.25;;;;;;;26.01;62.18;99638.76;1721762;82;20964;-76
2021/07/06 08:02:05;;;;;;;8.63;7.15;;;;;;;26.14;62.45;99637.11;1725143;82;20964;-75
2021/07/06 08:04:32;;;;;;;9.88;7.28;;;;;;;26.30;62.27;99641.47;1727403;82;22162;-76
2021/07/06 08:06:58;;;;;;;8.65;7.05;;;;;;;26.27;61.15;99645.50;1739469;82;21665;-74
2021/07/06 08:09:24;;;;;;;9.30;6.72;;;;;;;26.28;62.25;99636.84;1735711;81;21017;-77
2021/07/06 08:11:51;;;;;;;7.40;6.55;;;;;;;26.40;61.96;99640.34;1739687;82;20976;-78
2021/07/06 08:14:17;;;;;;;8.58;6.17;;;;;;;26.53;61.71;99642.73;1740018;82;21031;-80
2021/07/06 08:16:44;;;;;;;7.45;6.12;;;;;;;26.63;61.25;99640.20;1737507;82;21835;-78
2021/07/06 08:19:10;;;;;;;6.37;5.60;;;;;;;26.49;60.31;99640.23;1716129;82;21123;-82
2021/07/06 08:21:36;;;;;;;7.03;5.90;;;;;;;26.32;61.39;99636.63;1735270;82;21056;-80
2021/07/06 08:24:04;;;;;;;7.47;5.87;;;;;;;26.37;61.11;99636.23;1739302;82;21068;-82
2021/07/06 08:26:31;;;;;;;6.62;5.87;;;;;;;26.34;60.67;99651.56;1732740;82;21048;-80
2021/07/06 08:28:58;;;;;;;8.45;5.80;;;;;;;26.33;61.10;99649.10;1754098;80;21869;-81
2021/07/06 08:31:26;;;;;;;7.05;5.30;;;;;;;26.47;61.12;99651.85;1729080;82;20917;-82
2021/07/06 08:33:52;;;;;;;6.10;5.33;;;;;;;26.62;61.39;99648.04;1726008;82;21004;-81
2021/07/06 08:36:19;;;;;;;6.53;5.45;;;;;;;26.83;60.95;99645.17;1731313;81;21004;-82
2021/07/06 08:38:45;;;;;;;7.55;5.42;;;;;;;26.95;60.35;99647.26;1727039;82;20956;-82
2021/07/06 08:41:13;;;;;;;10.25;5.90;;;;;;;27.07;60.26;99652.08;1668416;83;21755;-81
2021/07/06 08:43:40;;;;;;;9.10;5.90;;;;;;;27.18;59.62;99649.53;1722961;82;21012;-80
2021/07/06 08:46:06;;;;;;;7.58;4.90;;;;;;;27.29;59.34;99649.97;1724181;82;20953;-79
2021/07/06 08:48:37;;;;;;;7.40;4.70;;;;;;;27.36;58.09;99660.92;1734311;82;21012;-78
2021/07/06 08:51:04;;;;;;;8.10;4.87;;;;;;;27.37;57.23;99659.85;1723124;82;20996;-80
2021/07/06 08:53:31;;;;;;;8.98;5.33;;;;;;;27.35;57.32;99664.71;1721225;82;22685;-82
2021/07/06 08:55:58;;;;;;;10.93;5.35;;;;;;;27.33;57.12;99667.39;1701417;82;21103;-82
2021/07/06 08:58:27;;;;;;;8.20;5.42;;;;;;;27.24;56.81;99662.92;1726458;82;20937;-81
2021/07/06 09:00:53;;;;;;;6.75;5.17;;;;;;;27.26;57.16;99658.60;1708779;81;21054;-81
2021/07/06 09:03:19;;;;;;;9.33;5.20;;;;;;;27.34;57.68;99658.19;1711619;82;21001;-81
2021/07/06 09:05:46;;;;;;;8.35;4.97;;;;;;;27.46;57.49;99656.72;1708780;82;21800;-78
2021/07/06 09:08:18;;;;;;;8.10;5.47;;;;;;;27.62;57.67;99655.88;1709761;82;21052;-77
2021/07/06 09:10:45;;;;;;;6.15;4.72;;;;;;;27.78;57.15;99662.33;1678561;82;20950;-74
2021/07/06 09:13:28;;;;;;;6.45;4.50;;;;;;;27.84;56.31;99658.08;1733324;82;21605;-75
2021/07/06 09:15:56;;;;;;;6.67;4.42;;;;;;;27.86;56.12;99661.90;1709460;82;20953;-76
2021/07/06 09:18:32;;;;;;;7.85;4.60;;;;;;;27.91;56.03;99663.33;1721478;82;22189;-78
2021/07/06 09:21:07;;;;;;;6.03;4.45;;;;;;;27.88;55.59;99653.78;1711943;82;21056;-78
2021/07/06 09:23:39;;;;;;;6.33;4.33;;;;;;;27.84;54.88;99665.41;1711919;82;20989;-80
2021/07/06 09:26:29;;;;;;;6.83;4.12;;;;;;;27.84;55.76;99654.02;1709550;82;20962;-77
2021/07/06 09:28:56;;;;;;;8.43;4.80;;;;;;;27.89;56.30;99658.16;1714724;82;21084;-80
2021/07/06 09:31:33;;;;;;;7.97;4.60;;;;;;;28.03;55.26;99653.70;1720437;82;21854;-79
2021/07/06 09:34:11;;;;;;;8.68;4.10;;;;;;;28.13;55.85;99659.24;1690665;83;20981;-79
2021/07/06 09:36:47;;;;;;;5.62;3.83;;;;;;;28.26;54.95;99650.69;1711436;82;20945;-78
2021/07/06 09:39:25;;;;;;;8.78;3.67;;;;;;;28.32;54.69;99645.64;1733697;82;21054;-81
2021/07/06 09:42:04;;;;;;;7.85;3.87;;;;;;;28.38;54.72;99651.41;1690017;82;21068;-80
2021/07/06 09:44:35;;;;;;;4.90;4.00;;;;;;;28.44;54.43;99649.55;1708614;82;21790;-80
2021/07/06 09:47:13;;;;;;;5.92;3.92;;;;;;;28.56;54.97;99646.67;1708738;82;21115;-79
2021/07/06 09:49:53;;;;;;;7.40;4.10;;;;;;;28.73;54.35;99651.45;1720224;82;21863;-80
2021/07/06 09:52:21;;;;;;;6.92;4.08;;;;;;;28.87;54.44;99643.70;1690892;82;21087;-76
2021/07/06 09:54:52;;;;;;;5.70;3.80;;;;;;;28.99;54.19;99653.34;1731509;82;20941;-79
2021/07/06 09:57:28;;;;;;;6.58;3.87;;;;;;;29.08;53.73;99655.05;1726485;82;22365;-76
2021/07/06 10:00:04;;;;;;;5.83;3.90;;;;;;;28.98;52.28;99651.70;1725532;82;21468;-79
2021/07/06 10:02:42;;;;;;;6.00;3.92;;;;;;;28.79;53.58;99654.51;1719484;82;21499;-75
2021/07/06 10:05:14;;;;;;;6.45;3.80;;;;;;;28.76;54.12;99652.31;1715758;82;20953;-73
2021/07/06 10:07:40;;;;;;;5.85;3.90;;;;;;;28.77;53.37;99647.98;1717558;82;21080;-74
2021/07/06 10:10:11;;;;;;;6.55;3.70;;;;;;;28.73;54.17;99651.45;1723110;82;21835;-74
2021/07/06 10:12:38;;;;;;;4.87;3.60;;;;;;;28.89;53.85;99655.98;1724985;82;21016;-75
2021/07/06 10:15:10;;;;;;;5.40;4.00;;;;;;;29.04;53.51;99656.63;1721398;82;21001;-74
2021/07/06 10:17:38;;;;;;;4.90;3.50;;;;;;;29.12;53.59;99653.43;1726146;82;21420;-75
2021/07/06 10:20:10;;;;;;;4.12;3.08;;;;;;;29.20;53.47;99656.20;1722999;82;21076;-75
2021/07/06 10:22:37;;;;;;;3.85;2.70;;;;;;;29.33;52.77;99657.92;1720976;82;22516;-75
2021/07/06 10:25:07;;;;;;;5.65;2.80;;;;;;;29.52;52.49;99648.81;1717342;82;20933;-76
2021/07/06 10:27:37;;;;;;;3.47;2.65;;;;;;;29.75;51.25;99659.84;1714542;83;20992;-76
2021/07/06 10:30:16;;;;;;;4.97;2.52;;;;;;;29.95;50.70;99667.82;1702181;82;21145;-76
2021/07/06 10:32:50;;;;;;;9.03;2.52;;;;;;;30.09;50.19;99656.17;1720022;82;21487;-76
2021/07/06 10:35:17;;;;;;;4.03;2.50;;;;;;;30.24;49.09;99656.78;1740946;81;21745;-76
2021/07/06 10:37:44;;;;;;;3.55;2.75;;;;;;;30.41;49.12;99669.63;1721021;82;20989;-78
2021/07/06 10:40:22;;;;;;;3.65;2.50;;;;;;;30.51;48.56;99663.93;1724049;82;21078;-77
2021/07/06 10:42:52;;;;;;;6.83;2.40;;;;;;;30.45;47.79;99666.63;1696999;82;21075;-78
2021/07/06 10:45:23;;;;;;;5.03;2.40;;;;;;;30.36;48.25;99670.16;1715349;81;20973;-79
2021/07/06 10:47:54;;;;;;;5.72;2.20;;;;;;;30.42;49.37;99659.55;1716775;82;22203;-78
2021/07/06 10:50:35;;;;;;;3.08;2.22;;;;;;;30.60;47.92;99669.12;1714807;82;21083;-79
2021/07/06 10:53:22;;;;;;;7.45;2.40;;;;;;;30.70;47.76;99669.98;1719912;82;21016;-81
2021/07/06 10:56:02;;;;;;;2.92;2.37;;;;;;;30.77;46.70;99675.96;1727495;82;20957;-81
2021/07/06 10:58:54;;;;;;;4.67;2.50;;;;;;;30.80;46.70;99678.71;1726328;82;21405;-78
2021/07/06 11:01:53;;;;;;;4.83;2.52;;;;;;;30.86;47.21;99680.87;1714073;82;21899;-79
2021/07/06 11:04:46;;;;;;;3.77;2.58;;;;;;;30.92;46.76;99670.26;1732513;82;20942;-78
2021/07/06 11:07:16;;;;;;;5.97;2.60;;;;;;;31.02;46.35;99672.44;1710661;82;21000;-81
2021/07/06 11:09:51;;;;;;;5.37;2.40;;;;;;;31.21;46.81;99676.81;1716889;82;21033;-80
2021/07/06 11:12:31;;;;;;;3.27;2.25;;;;;;;31.37;46.21;99680.36;1729204;82;21314;-81
2021/07/06 11:15:07;;;;;;;3.50;2.30;;;;;;;31.43;45.42;99676.50;1734602;82;21022;-81
2021/07/06 11:17:39;;;;;;;5.80;2.50;;;;;;;31.49;44.20;99680.87;1734597;82;20993;-80
2021/07/06 11:20:18;;;;;;;4.85;2.50;;;;;;;31.35;44.25;99682.52;1735950;82;20977;-80
2021/07/06 11:22:56;;;;;;;2.72;2.08;;;;;;;31.37;44.95;99683.08;1719735;82;20997;-81
2021/07/06 11:25:37;;;;;;;5.83;2.87;;;;;;;31.51;44.54;99692.33;1706461;84;21172;-81
2021/07/06 11:28:13;;;;;;;4.20;2.50;;;;;;;31.60;45.12;99694.76;1706613;84;21853;-81
2021/07/06 11:30:58;;;;;;;4.25;2.67;;;;;;;31.67;44.28;99690.38;1706552;83;21362;-80
2021/07/06 11:33:37;;;;;;;3.42;2.80;;;;;;;31.60;44.40;99691.22;1706564;84;21504;-80
2021/07/06 11:36:06;;;;;;;5.47;2.77;;;;;;;31.19;44.56;99693.16;1706566;82;21439;-80
2021/07/06 11:38:44;;;;;;;6.17;3.55;;;;;;;30.85;45.51;99694.24;1707479;82;21048;-80
2021/07/06 11:41:12;;;;;;;7.20;3.37;;;;;;;30.53;45.33;99689.00;1706704;84;21856;-80